Vero Beach, FL (32962)

4:20 AM EDT on July 28, 2017 (GMT -0400)
MD7220 | | Change Station

Elev 19 ft 27.61 °N, 80.39 °W | Updated 87 days ago

Clear
Clear
79.0 °F
Feels Like 83 °F
N
10.0
Wind Variable Wind from ESE

Today
High -- | Low -- °F
--% Chance of Precip.
Yesterday
High -- | Low -- °F
Precip. -- in
Pressure 29.94 in
Visibility 10.0 miles
Clouds Clear
Heat Index 83 °F
Dew Point 75.0 °F
Humidity 87%
Rainfall 0.00 in
Snow Depth Not available.
6:42 AM 8:12 PM
Waxing Crescent, 28% visible
METAR KVRB 280753Z AUTO 20003KT 10SM CLR 26/24 A2994 RMK AO2 SLP139 T02560239
Pressure 29.94 in
Visibility 10.0 miles
Clouds Clear
Heat Index 83 °F
Dew Point 75.0 °F
Humidity 87%
Rainfall 0.00 in
Snow Depth Not available.
6:42 AM 8:12 PM
Waxing Crescent, 28% visible
METAR KVRB 280753Z AUTO 20003KT 10SM CLR 26/24 A2994 RMK AO2 SLP139 T02560239

Get Severe Weather Alerts

Thanks for signing up!

Be on the lookout for a verification email in your inbox.

You'll start receiving the daily forecast at 6 AM.

×

10-Day Weather Forecast

Almanac

Astronomy

Jul. 28, 2017 Rise Set
Actual Time
Civil Twilight
Nautical Twilight
Astronomical Twilight
Moon
Length of Visible Light
Length of Day
Tomorrow will be .
, % of the Moon is Illuminated

Today's Extremes

State Highs State Lows

Community

WunderPhotos

Category 6

Welcome to Category 6. This is the collective home for Weather Underground's featured writeups by Dr. Jeff Masters (right), Bob Henson (left), Chris Burt, and other regular contributors.

Nearby

Air Quality

  Air Quality AQ Index Pollutant
Not available.

Snow Depth

Station Depth Elevation

Earthquake Activity

City Distance Mag. Time & Date
Minimum magnitude displayed is 2.5.

Coastal Water Temperatures

Place Temperature

Stations

Nearby Weather Stations

Station Location Temp. Windchill Dew Point Humidity Wind Precip. Elev Updated Type
                   

Watches & Warnings

There are currently no watches in effect.